Isabella, Minnesota
Current Conditions -  °F | °C
As of 2:14 PM on Thursday 18 Dec 2014 (Local Time) from KBFW Reporting Station
Overcast Overcast  
Wind Chill: 19°   Ceiling: 1800
Heat Index: 27°   Visibility: 10mi
Dew Point: 21°   Wind: 7mph
Humidity: 80%   Direction: 50°NE
Pressure: 30.22"   Gusts: NA
Location:  47.62°N, 91.36°W
Report Text: KBFW 182014Z AUTO 05006KT 10SM BKN018 OVC024 M03/M06 A3022 RMK AO2
Loading
Personal Weather Stations






























Interactive Weather Map New forecast layout! Learn more

10-Day Weather Forecast

Advertisements
Track Severe Weather on mobile